sensor_id;sensor_type;location;lat;lon;timestamp;P1;durP1;ratioP1;P2;durP2;ratioP2
75426;SDS011;64007;50.632;13.700;2023-02-25T00:00:32;10.50;;;3.25;;
75426;SDS011;64007;50.632;13.700;2023-02-25T00:03:11;4.25;;;2.13;;
75426;SDS011;64007;50.632;13.700;2023-02-25T00:05:40;5.70;;;2.55;;
75426;SDS011;64007;50.632;13.700;2023-02-25T00:08:06;8.90;;;2.90;;
75426;SDS011;64007;50.632;13.700;2023-02-25T00:10:33;5.38;;;2.45;;
75426;SDS011;64007;50.632;13.700;2023-02-25T00:12:59;4.90;;;1.80;;
75426;SDS011;64007;50.632;13.700;2023-02-25T00:15:25;2.55;;;1.45;;
75426;SDS011;64007;50.632;13.700;2023-02-25T00:17:50;2.90;;;1.70;;
75426;SDS011;64007;50.632;13.700;2023-02-25T00:20:16;3.95;;;1.67;;
75426;SDS011;64007;50.632;13.700;2023-02-25T00:22:46;3.28;;;1.48;;
75426;SDS011;64007;50.632;13.700;2023-02-25T00:25:13;4.25;;;1.38;;
75426;SDS011;64007;50.632;13.700;2023-02-25T00:27:43;2.95;;;1.20;;
75426;SDS011;64007;50.632;13.700;2023-02-25T00:30:09;1.65;;;0.80;;
75426;SDS011;64007;50.632;13.700;2023-02-25T00:32:36;1.75;;;1.00;;
75426;SDS011;64007;50.632;13.700;2023-02-25T00:35:03;1.50;;;0.80;;
75426;SDS011;64007;50.632;13.700;2023-02-25T00:37:28;1.00;;;0.60;;
75426;SDS011;64007;50.632;13.700;2023-02-25T00:39:54;1.42;;;0.65;;
75426;SDS011;64007;50.632;13.700;2023-02-25T00:42:20;1.08;;;0.50;;
75426;SDS011;64007;50.632;13.700;2023-02-25T00:44:47;0.60;;;0.47;;
75426;SDS011;64007;50.632;13.700;2023-02-25T00:47:15;1.08;;;0.60;;
75426;SDS011;64007;50.632;13.700;2023-02-25T00:49:43;1.67;;;0.88;;
75426;SDS011;64007;50.632;13.700;2023-02-25T00:52:11;0.95;;;0.70;;
75426;SDS011;64007;50.632;13.700;2023-02-25T00:54:37;1.50;;;0.73;;
75426;SDS011;64007;50.632;13.700;2023-02-25T00:57:04;1.20;;;0.70;;
75426;SDS011;64007;50.632;13.700;2023-02-25T00:59:30;1.35;;;0.60;;
75426;SDS011;64007;50.632;13.700;2023-02-25T01:01:56;1.30;;;0.60;;
75426;SDS011;64007;50.632;13.700;2023-02-25T01:04:22;1.58;;;0.80;;
75426;SDS011;64007;50.632;13.700;2023-02-25T01:06:48;1.48;;;0.70;;
75426;SDS011;64007;50.632;13.700;2023-02-25T01:09:15;2.15;;;0.77;;
75426;SDS011;64007;50.632;13.700;2023-02-25T01:11:42;2.58;;;0.82;;
75426;SDS011;64007;50.632;13.700;2023-02-25T01:14:11;2.97;;;1.00;;
75426;SDS011;64007;50.632;13.700;2023-02-25T01:16:39;3.42;;;1.30;;
75426;SDS011;64007;50.632;13.700;2023-02-25T01:19:07;3.40;;;1.23;;
75426;SDS011;64007;50.632;13.700;2023-02-25T01:21:37;2.33;;;1.15;;
75426;SDS011;64007;50.632;13.700;2023-02-25T01:24:09;2.08;;;1.20;;
75426;SDS011;64007;50.632;13.700;2023-02-25T01:26:40;3.20;;;1.40;;
75426;SDS011;64007;50.632;13.700;2023-02-25T01:29:08;2.70;;;1.35;;
75426;SDS011;64007;50.632;13.700;2023-02-25T01:31:35;4.47;;;1.30;;
75426;SDS011;64007;50.632;13.700;2023-02-25T01:34:03;4.10;;;1.60;;
75426;SDS011;64007;50.632;13.700;2023-02-25T01:36:30;7.50;;;1.58;;
75426;SDS011;64007;50.632;13.700;2023-02-25T01:38:58;7.60;;;1.65;;
75426;SDS011;64007;50.632;13.700;2023-02-25T01:41:25;7.18;;;2.10;;
75426;SDS011;64007;50.632;13.700;2023-02-25T01:44:06;4.43;;;1.70;;
75426;SDS011;64007;50.632;13.700;2023-02-25T01:46:43;7.72;;;1.83;;
75426;SDS011;64007;50.632;13.700;2023-02-25T01:51:37;8.00;;;1.95;;
75426;SDS011;64007;50.632;13.700;2023-02-25T01:54:03;6.05;;;1.90;;
75426;SDS011;64007;50.632;13.700;2023-02-25T01:56:32;5.15;;;2.00;;
75426;SDS011;64007;50.632;13.700;2023-02-25T01:58:59;9.38;;;2.10;;
75426;SDS011;64007;50.632;13.700;2023-02-25T02:01:25;5.82;;;1.80;;
75426;SDS011;64007;50.632;13.700;2023-02-25T02:03:56;9.48;;;2.35;;
75426;SDS011;64007;50.632;13.700;2023-02-25T02:06:28;9.20;;;2.20;;
75426;SDS011;64007;50.632;13.700;2023-02-25T02:08:58;9.82;;;1.83;;
75426;SDS011;64007;50.632;13.700;2023-02-25T02:11:25;5.60;;;1.90;;
75426;SDS011;64007;50.632;13.700;2023-02-25T02:13:55;7.60;;;1.60;;
75426;SDS011;64007;50.632;13.700;2023-02-25T02:25:06;7.38;;;1.70;;
75426;SDS011;64007;50.632;13.700;2023-02-25T02:30:36;5.65;;;1.73;;
75426;SDS011;64007;50.632;13.700;2023-02-25T02:35:45;9.10;;;1.60;;
75426;SDS011;64007;50.632;13.700;2023-02-25T02:38:28;5.13;;;1.48;;
75426;SDS011;64007;50.632;13.700;2023-02-25T02:43:48;4.25;;;1.52;;
75426;SDS011;64007;50.632;13.700;2023-02-25T02:46:22;9.07;;;1.40;;
75426;SDS011;64007;50.632;13.700;2023-02-25T02:49:04;7.05;;;1.70;;
75426;SDS011;64007;50.632;13.700;2023-02-25T02:51:44;4.93;;;2.13;;
75426;SDS011;64007;50.632;13.700;2023-02-25T02:54:16;4.38;;;1.38;;
75426;SDS011;64007;50.632;13.700;2023-02-25T02:56:43;4.53;;;1.17;;
75426;SDS011;64007;50.632;13.700;2023-02-25T02:59:19;3.92;;;1.42;;
75426;SDS011;64007;50.632;13.700;2023-02-25T03:01:51;6.00;;;1.30;;
75426;SDS011;64007;50.632;13.700;2023-02-25T03:04:24;6.25;;;1.38;;
75426;SDS011;64007;50.632;13.700;2023-02-25T03:06:57;4.78;;;1.20;;
75426;SDS011;64007;50.632;13.700;2023-02-25T03:09:31;1.90;;;0.93;;
75426;SDS011;64007;50.632;13.700;2023-02-25T03:12:00;8.88;;;1.58;;
75426;SDS011;64007;50.632;13.700;2023-02-25T03:14:26;7.90;;;1.48;;
75426;SDS011;64007;50.632;13.700;2023-02-25T03:19:43;5.63;;;1.50;;
75426;SDS011;64007;50.632;13.700;2023-02-25T03:22:15;1.85;;;0.93;;
75426;SDS011;64007;50.632;13.700;2023-02-25T03:24:45;9.20;;;1.40;;
75426;SDS011;64007;50.632;13.700;2023-02-25T03:27:22;4.05;;;1.25;;
75426;SDS011;64007;50.632;13.700;2023-02-25T03:29:51;4.05;;;1.50;;
75426;SDS011;64007;50.632;13.700;2023-02-25T03:32:19;7.13;;;1.20;;
75426;SDS011;64007;50.632;13.700;2023-02-25T03:34:47;3.72;;;0.98;;
75426;SDS011;64007;50.632;13.700;2023-02-25T03:37:18;3.15;;;1.08;;
75426;SDS011;64007;50.632;13.700;2023-02-25T03:39:48;5.32;;;1.38;;
75426;SDS011;64007;50.632;13.700;2023-02-25T03:42:22;7.95;;;1.02;;
75426;SDS011;64007;50.632;13.700;2023-02-25T03:44:52;2.55;;;0.90;;
75426;SDS011;64007;50.632;13.700;2023-02-25T03:47:21;2.70;;;0.93;;
75426;SDS011;64007;50.632;13.700;2023-02-25T03:49:50;2.97;;;1.00;;
75426;SDS011;64007;50.632;13.700;2023-02-25T03:52:33;4.75;;;1.23;;
75426;SDS011;64007;50.632;13.700;2023-02-25T03:55:00;5.38;;;0.95;;
75426;SDS011;64007;50.632;13.700;2023-02-25T03:57:35;5.30;;;0.82;;
75426;SDS011;64007;50.632;13.700;2023-02-25T04:00:04;3.25;;;0.95;;
75426;SDS011;64007;50.632;13.700;2023-02-25T04:02:42;1.48;;;0.73;;
75426;SDS011;64007;50.632;13.700;2023-02-25T04:05:09;3.45;;;1.10;;
75426;SDS011;64007;50.632;13.700;2023-02-25T04:07:35;1.17;;;0.77;;
75426;SDS011;64007;50.632;13.700;2023-02-25T04:10:01;1.80;;;0.80;;
75426;SDS011;64007;50.632;13.700;2023-02-25T04:12:28;2.70;;;0.90;;
75426;SDS011;64007;50.632;13.700;2023-02-25T04:14:54;3.03;;;1.08;;
75426;SDS011;64007;50.632;13.700;2023-02-25T04:17:19;5.38;;;0.80;;
75426;SDS011;64007;50.632;13.700;2023-02-25T04:19:45;6.18;;;1.42;;
75426;SDS011;64007;50.632;13.700;2023-02-25T04:22:11;7.15;;;1.23;;
75426;SDS011;64007;50.632;13.700;2023-02-25T04:24:36;3.08;;;0.80;;
75426;SDS011;64007;50.632;13.700;2023-02-25T04:27:02;1.75;;;0.75;;
75426;SDS011;64007;50.632;13.700;2023-02-25T04:29:28;2.10;;;0.65;;
75426;SDS011;64007;50.632;13.700;2023-02-25T04:31:54;1.58;;;0.80;;
75426;SDS011;64007;50.632;13.700;2023-02-25T04:34:20;4.22;;;1.05;;
75426;SDS011;64007;50.632;13.700;2023-02-25T04:36:47;1.63;;;0.70;;
75426;SDS011;64007;50.632;13.700;2023-02-25T04:39:13;4.57;;;0.88;;
75426;SDS011;64007;50.632;13.700;2023-02-25T04:41:40;1.80;;;0.50;;
75426;SDS011;64007;50.632;13.700;2023-02-25T04:44:06;1.40;;;0.68;;
75426;SDS011;64007;50.632;13.700;2023-02-25T04:46:34;4.13;;;0.90;;
75426;SDS011;64007;50.632;13.700;2023-02-25T04:49:07;4.30;;;0.57;;
75426;SDS011;64007;50.632;13.700;2023-02-25T04:51:37;1.60;;;0.57;;
75426;SDS011;64007;50.632;13.700;2023-02-25T04:54:03;1.05;;;0.50;;
75426;SDS011;64007;50.632;13.700;2023-02-25T04:56:30;1.58;;;0.50;;
75426;SDS011;64007;50.632;13.700;2023-02-25T04:58:56;1.75;;;0.63;;
75426;SDS011;64007;50.632;13.700;2023-02-25T05:01:22;3.88;;;0.52;;
75426;SDS011;64007;50.632;13.700;2023-02-25T05:03:48;2.47;;;0.60;;
75426;SDS011;64007;50.632;13.700;2023-02-25T05:06:14;1.30;;;0.55;;
75426;SDS011;64007;50.632;13.700;2023-02-25T05:08:40;2.88;;;0.57;;
75426;SDS011;64007;50.632;13.700;2023-02-25T05:11:06;3.55;;;0.60;;
75426;SDS011;64007;50.632;13.700;2023-02-25T05:13:31;2.17;;;0.90;;
75426;SDS011;64007;50.632;13.700;2023-02-25T05:16:04;2.58;;;0.68;;
75426;SDS011;64007;50.632;13.700;2023-02-25T05:18:35;2.88;;;0.57;;
75426;SDS011;64007;50.632;13.700;2023-02-25T05:21:02;2.35;;;0.60;;
75426;SDS011;64007;50.632;13.700;2023-02-25T05:23:28;2.35;;;0.70;;
75426;SDS011;64007;50.632;13.700;2023-02-25T05:25:54;4.40;;;0.63;;
75426;SDS011;64007;50.632;13.700;2023-02-25T05:28:22;2.08;;;0.70;;
75426;SDS011;64007;50.632;13.700;2023-02-25T05:30:48;4.13;;;0.80;;
75426;SDS011;64007;50.632;13.700;2023-02-25T05:33:16;1.90;;;0.80;;
75426;SDS011;64007;50.632;13.700;2023-02-25T05:35:42;1.85;;;0.70;;
75426;SDS011;64007;50.632;13.700;2023-02-25T05:38:07;2.85;;;0.65;;
75426;SDS011;64007;50.632;13.700;2023-02-25T05:40:33;1.88;;;1.08;;
75426;SDS011;64007;50.632;13.700;2023-02-25T05:43:00;2.33;;;0.90;;
75426;SDS011;64007;50.632;13.700;2023-02-25T05:45:26;2.95;;;0.70;;
75426;SDS011;64007;50.632;13.700;2023-02-25T05:47:52;2.38;;;0.70;;
75426;SDS011;64007;50.632;13.700;2023-02-25T05:50:17;1.10;;;0.60;;
75426;SDS011;64007;50.632;13.700;2023-02-25T05:52:43;2.08;;;0.60;;
75426;SDS011;64007;50.632;13.700;2023-02-25T05:55:09;1.58;;;0.60;;
75426;SDS011;64007;50.632;13.700;2023-02-25T05:57:35;3.38;;;0.95;;
75426;SDS011;64007;50.632;13.700;2023-02-25T06:00:01;1.30;;;0.70;;
75426;SDS011;64007;50.632;13.700;2023-02-25T06:02:28;2.08;;;0.57;;
75426;SDS011;64007;50.632;13.700;2023-02-25T06:04:54;2.42;;;0.70;;
75426;SDS011;64007;50.632;13.700;2023-02-25T06:07:20;2.67;;;0.60;;
75426;SDS011;64007;50.632;13.700;2023-02-25T06:09:46;2.85;;;0.57;;
75426;SDS011;64007;50.632;13.700;2023-02-25T06:12:11;1.58;;;0.55;;
75426;SDS011;64007;50.632;13.700;2023-02-25T06:14:37;1.75;;;0.75;;
75426;SDS011;64007;50.632;13.700;2023-02-25T06:17:03;1.35;;;0.60;;
75426;SDS011;64007;50.632;13.700;2023-02-25T06:19:29;0.52;;;0.40;;
75426;SDS011;64007;50.632;13.700;2023-02-25T06:21:54;3.17;;;0.60;;
75426;SDS011;64007;50.632;13.700;2023-02-25T06:24:21;0.85;;;0.52;;
75426;SDS011;64007;50.632;13.700;2023-02-25T06:26:47;1.08;;;0.70;;
75426;SDS011;64007;50.632;13.700;2023-02-25T06:29:13;3.08;;;0.40;;
75426;SDS011;64007;50.632;13.700;2023-02-25T06:31:38;1.45;;;0.60;;
75426;SDS011;64007;50.632;13.700;2023-02-25T06:34:04;4.70;;;0.68;;
75426;SDS011;64007;50.632;13.700;2023-02-25T06:36:30;0.70;;;0.50;;
75426;SDS011;64007;50.632;13.700;2023-02-25T06:38:57;0.43;;;0.43;;
75426;SDS011;64007;50.632;13.700;2023-02-25T06:41:23;1.05;;;0.63;;
75426;SDS011;64007;50.632;13.700;2023-02-25T06:43:49;1.88;;;0.90;;
75426;SDS011;64007;50.632;13.700;2023-02-25T06:46:16;0.85;;;0.60;;
75426;SDS011;64007;50.632;13.700;2023-02-25T06:48:47;0.73;;;0.47;;
75426;SDS011;64007;50.632;13.700;2023-02-25T06:51:13;2.47;;;0.47;;
75426;SDS011;64007;50.632;13.700;2023-02-25T06:53:41;1.88;;;0.60;;
75426;SDS011;64007;50.632;13.700;2023-02-25T06:56:08;2.05;;;0.70;;
75426;SDS011;64007;50.632;13.700;2023-02-25T06:58:37;1.25;;;0.73;;
75426;SDS011;64007;50.632;13.700;2023-02-25T07:01:06;1.20;;;0.80;;
75426;SDS011;64007;50.632;13.700;2023-02-25T07:03:33;2.13;;;0.93;;
75426;SDS011;64007;50.632;13.700;2023-02-25T07:05:58;1.55;;;0.60;;
75426;SDS011;64007;50.632;13.700;2023-02-25T07:08:24;4.80;;;1.80;;
75426;SDS011;64007;50.632;13.700;2023-02-25T07:10:50;3.78;;;2.20;;
75426;SDS011;64007;50.632;13.700;2023-02-25T07:13:16;2.72;;;1.42;;
75426;SDS011;64007;50.632;13.700;2023-02-25T07:15:41;5.18;;;1.80;;
75426;SDS011;64007;50.632;13.700;2023-02-25T07:18:07;3.53;;;0.90;;
75426;SDS011;64007;50.632;13.700;2023-02-25T07:20:33;2.05;;;1.02;;
75426;SDS011;64007;50.632;13.700;2023-02-25T07:23:01;2.33;;;1.30;;
75426;SDS011;64007;50.632;13.700;2023-02-25T07:25:27;1.65;;;1.27;;
75426;SDS011;64007;50.632;13.700;2023-02-25T07:27:53;2.15;;;1.30;;
75426;SDS011;64007;50.632;13.700;2023-02-25T07:30:18;1.73;;;1.17;;
75426;SDS011;64007;50.632;13.700;2023-02-25T07:32:44;3.67;;;1.50;;
75426;SDS011;64007;50.632;13.700;2023-02-25T07:35:10;1.83;;;1.10;;
75426;SDS011;64007;50.632;13.700;2023-02-25T07:37:36;1.75;;;1.17;;
75426;SDS011;64007;50.632;13.700;2023-02-25T07:40:03;1.40;;;1.10;;
75426;SDS011;64007;50.632;13.700;2023-02-25T07:42:38;2.10;;;1.00;;
75426;SDS011;64007;50.632;13.700;2023-02-25T07:45:04;1.00;;;0.80;;
75426;SDS011;64007;50.632;13.700;2023-02-25T07:47:34;0.85;;;0.65;;
75426;SDS011;64007;50.632;13.700;2023-02-25T07:49:59;1.35;;;0.93;;
75426;SDS011;64007;50.632;13.700;2023-02-25T07:52:25;1.25;;;0.70;;
75426;SDS011;64007;50.632;13.700;2023-02-25T07:54:51;1.33;;;0.82;;
75426;SDS011;64007;50.632;13.700;2023-02-25T07:57:16;1.77;;;0.95;;
75426;SDS011;64007;50.632;13.700;2023-02-25T07:59:42;2.47;;;1.00;;
75426;SDS011;64007;50.632;13.700;2023-02-25T08:02:09;4.30;;;1.30;;
75426;SDS011;64007;50.632;13.700;2023-02-25T08:04:35;1.17;;;0.75;;
75426;SDS011;64007;50.632;13.700;2023-02-25T08:07:02;2.50;;;0.80;;
75426;SDS011;64007;50.632;13.700;2023-02-25T08:09:27;2.55;;;1.00;;
75426;SDS011;64007;50.632;13.700;2023-02-25T08:11:53;2.22;;;1.08;;
75426;SDS011;64007;50.632;13.700;2023-02-25T08:14:19;1.30;;;0.90;;
75426;SDS011;64007;50.632;13.700;2023-02-25T08:16:46;2.03;;;1.40;;
75426;SDS011;64007;50.632;13.700;2023-02-25T08:19:12;3.58;;;1.95;;
75426;SDS011;64007;50.632;13.700;2023-02-25T08:21:38;3.55;;;0.77;;
75426;SDS011;64007;50.632;13.700;2023-02-25T08:24:05;3.08;;;2.00;;
75426;SDS011;64007;50.632;13.700;2023-02-25T08:26:32;2.25;;;1.20;;
75426;SDS011;64007;50.632;13.700;2023-02-25T08:28:58;2.67;;;0.95;;
75426;SDS011;64007;50.632;13.700;2023-02-25T08:31:24;1.60;;;1.20;;
75426;SDS011;64007;50.632;13.700;2023-02-25T08:33:50;1.92;;;1.23;;
75426;SDS011;64007;50.632;13.700;2023-02-25T08:36:18;5.15;;;1.88;;
75426;SDS011;64007;50.632;13.700;2023-02-25T08:38:46;3.15;;;1.60;;
75426;SDS011;64007;50.632;13.700;2023-02-25T08:41:12;1.98;;;1.30;;
75426;SDS011;64007;50.632;13.700;2023-02-25T08:43:38;5.95;;;1.60;;
75426;SDS011;64007;50.632;13.700;2023-02-25T08:46:05;2.15;;;1.10;;
75426;SDS011;64007;50.632;13.700;2023-02-25T08:48:32;3.22;;;1.20;;
75426;SDS011;64007;50.632;13.700;2023-02-25T08:51:05;5.05;;;1.10;;
75426;SDS011;64007;50.632;13.700;2023-02-25T08:53:35;5.80;;;1.15;;
75426;SDS011;64007;50.632;13.700;2023-02-25T08:56:03;2.53;;;1.20;;
75426;SDS011;64007;50.632;13.700;2023-02-25T08:58:33;5.68;;;1.10;;
75426;SDS011;64007;50.632;13.700;2023-02-25T09:01:00;2.85;;;1.13;;
75426;SDS011;64007;50.632;13.700;2023-02-25T09:03:25;3.05;;;1.60;;
75426;SDS011;64007;50.632;13.700;2023-02-25T09:05:52;3.30;;;1.85;;
75426;SDS011;64007;50.632;13.700;2023-02-25T09:08:19;2.90;;;1.20;;
75426;SDS011;64007;50.632;13.700;2023-02-25T09:10:45;3.35;;;1.50;;
75426;SDS011;64007;50.632;13.700;2023-02-25T09:13:11;7.82;;;3.78;;
75426;SDS011;64007;50.632;13.700;2023-02-25T09:15:37;1.80;;;1.00;;
75426;SDS011;64007;50.632;13.700;2023-02-25T09:18:02;1.52;;;1.05;;
75426;SDS011;64007;50.632;13.700;2023-02-25T09:20:28;4.47;;;2.15;;
75426;SDS011;64007;50.632;13.700;2023-02-25T09:22:54;2.80;;;1.80;;
75426;SDS011;64007;50.632;13.700;2023-02-25T09:25:20;1.92;;;1.40;;
75426;SDS011;64007;50.632;13.700;2023-02-25T09:27:46;6.15;;;3.05;;
75426;SDS011;64007;50.632;13.700;2023-02-25T09:30:13;5.90;;;2.03;;
75426;SDS011;64007;50.632;13.700;2023-02-25T09:32:39;5.93;;;2.08;;
75426;SDS011;64007;50.632;13.700;2023-02-25T09:35:05;1.98;;;1.40;;
75426;SDS011;64007;50.632;13.700;2023-02-25T09:37:32;5.15;;;2.20;;
75426;SDS011;64007;50.632;13.700;2023-02-25T09:39:58;1.88;;;0.93;;
75426;SDS011;64007;50.632;13.700;2023-02-25T09:42:28;4.13;;;1.70;;
75426;SDS011;64007;50.632;13.700;2023-02-25T09:45:08;3.20;;;1.42;;
75426;SDS011;64007;50.632;13.700;2023-02-25T09:47:44;1.95;;;1.20;;
75426;SDS011;64007;50.632;13.700;2023-02-25T09:50:18;1.13;;;0.90;;
75426;SDS011;64007;50.632;13.700;2023-02-25T09:55:33;1.98;;;1.10;;
75426;SDS011;64007;50.632;13.700;2023-02-25T09:58:07;2.60;;;1.67;;
75426;SDS011;64007;50.632;13.700;2023-02-25T10:00:39;1.85;;;1.00;;
75426;SDS011;64007;50.632;13.700;2023-02-25T10:11:08;1.30;;;0.95;;
75426;SDS011;64007;50.632;13.700;2023-02-25T10:13:43;1.75;;;1.00;;
75426;SDS011;64007;50.632;13.700;2023-02-25T10:18:55;1.52;;;0.70;;
75426;SDS011;64007;50.632;13.700;2023-02-25T10:24:13;1.35;;;0.90;;
75426;SDS011;64007;50.632;13.700;2023-02-25T10:26:48;2.83;;;0.90;;
75426;SDS011;64007;50.632;13.700;2023-02-25T10:29:29;1.48;;;0.90;;
75426;SDS011;64007;50.632;13.700;2023-02-25T10:32:16;1.60;;;0.93;;
75426;SDS011;64007;50.632;13.700;2023-02-25T10:34:57;1.63;;;0.90;;
75426;SDS011;64007;50.632;13.700;2023-02-25T10:37:28;1.30;;;0.80;;
75426;SDS011;64007;50.632;13.700;2023-02-25T10:40:00;1.77;;;0.93;;
75426;SDS011;64007;50.632;13.700;2023-02-25T10:42:28;1.50;;;1.00;;
75426;SDS011;64007;50.632;13.700;2023-02-25T10:44:54;1.42;;;0.70;;
75426;SDS011;64007;50.632;13.700;2023-02-25T10:47:33;3.35;;;1.60;;
75426;SDS011;64007;50.632;13.700;2023-02-25T10:58:31;1.38;;;0.80;;
75426;SDS011;64007;50.632;13.700;2023-02-25T11:01:02;1.65;;;1.00;;
75426;SDS011;64007;50.632;13.700;2023-02-25T11:03:29;2.45;;;0.90;;
75426;SDS011;64007;50.632;13.700;2023-02-25T11:06:11;1.27;;;0.60;;
75426;SDS011;64007;50.632;13.700;2023-02-25T11:08:41;1.20;;;0.77;;
75426;SDS011;64007;50.632;13.700;2023-02-25T11:11:19;1.23;;;0.60;;
75426;SDS011;64007;50.632;13.700;2023-02-25T11:14:03;1.50;;;0.52;;
75426;SDS011;64007;50.632;13.700;2023-02-25T11:16:35;0.60;;;0.50;;
75426;SDS011;64007;50.632;13.700;2023-02-25T11:21:49;1.67;;;0.88;;
75426;SDS011;64007;50.632;13.700;2023-02-25T11:24:18;0.38;;;0.32;;
75426;SDS011;64007;50.632;13.700;2023-02-25T11:26:53;1.00;;;0.30;;
75426;SDS011;64007;50.632;13.700;2023-02-25T11:29:20;0.80;;;0.22;;
75426;SDS011;64007;50.632;13.700;2023-02-25T11:31:54;0.70;;;0.40;;
75426;SDS011;64007;50.632;13.700;2023-02-25T11:34:31;1.13;;;0.50;;
75426;SDS011;64007;50.632;13.700;2023-02-25T11:39:58;0.65;;;0.43;;
75426;SDS011;64007;50.632;13.700;2023-02-25T11:42:25;1.13;;;0.50;;
75426;SDS011;64007;50.632;13.700;2023-02-25T11:44:57;0.85;;;0.38;;
75426;SDS011;64007;50.632;13.700;2023-02-25T11:47:29;0.20;;;0.20;;
75426;SDS011;64007;50.632;13.700;2023-02-25T11:50:00;0.30;;;0.30;;
75426;SDS011;64007;50.632;13.700;2023-02-25T11:55:04;0.80;;;0.50;;
75426;SDS011;64007;50.632;13.700;2023-02-25T12:01:06;1.80;;;1.10;;
75426;SDS011;64007;50.632;13.700;2023-02-25T12:09:38;2.10;;;0.90;;
75426;SDS011;64007;50.632;13.700;2023-02-25T12:26:04;3.08;;;1.00;;
75426;SDS011;64007;50.632;13.700;2023-02-25T12:28:41;2.58;;;0.80;;
75426;SDS011;64007;50.632;13.700;2023-02-25T12:42:10;2.08;;;0.88;;
75426;SDS011;64007;50.632;13.700;2023-02-25T12:44:52;2.20;;;1.10;;
75426;SDS011;64007;50.632;13.700;2023-02-25T12:47:27;8.73;;;2.40;;
75426;SDS011;64007;50.632;13.700;2023-02-25T13:07:27;0.73;;;0.60;;
75426;SDS011;64007;50.632;13.700;2023-02-25T13:13:23;0.65;;;0.60;;
75426;SDS011;64007;50.632;13.700;2023-02-25T13:26:53;1.05;;;0.70;;
75426;SDS011;64007;50.632;13.700;2023-02-25T13:40:04;0.65;;;0.60;;
75426;SDS011;64007;50.632;13.700;2023-02-25T13:45:45;2.20;;;1.25;;
75426;SDS011;64007;50.632;13.700;2023-02-25T14:10:34;0.38;;;0.38;;
75426;SDS011;64007;50.632;13.700;2023-02-25T14:29:30;2.47;;;0.90;;
75426;SDS011;64007;50.632;13.700;2023-02-25T14:35:07;2.70;;;0.80;;
75426;SDS011;64007;50.632;13.700;2023-02-25T14:40:57;1.00;;;0.80;;
75426;SDS011;64007;50.632;13.700;2023-02-25T14:43:42;1.33;;;0.90;;
75426;SDS011;64007;50.632;13.700;2023-02-25T15:23:04;0.90;;;0.60;;
75426;SDS011;64007;50.632;13.700;2023-02-25T15:25:39;1.55;;;0.50;;
75426;SDS011;64007;50.632;13.700;2023-02-25T15:33:37;0.85;;;0.50;;
75426;SDS011;64007;50.632;13.700;2023-02-25T15:49:04;0.80;;;0.50;;
75426;SDS011;64007;50.632;13.700;2023-02-25T15:54:58;2.22;;;0.68;;
75426;SDS011;64007;50.632;13.700;2023-02-25T15:57:47;0.68;;;0.40;;
75426;SDS011;64007;50.632;13.700;2023-02-25T15:59:52;0.55;;;0.40;;
75426;SDS011;64007;50.632;13.700;2023-02-25T16:05:27;1.42;;;0.60;;
75426;SDS011;64007;50.632;13.700;2023-02-25T16:08:01;1.08;;;0.60;;
75426;SDS011;64007;50.632;13.700;2023-02-25T16:10:40;0.88;;;0.50;;
75426;SDS011;64007;50.632;13.700;2023-02-25T16:13:14;0.32;;;0.32;;
75426;SDS011;64007;50.632;13.700;2023-02-25T16:15:47;1.80;;;0.50;;
75426;SDS011;64007;50.632;13.700;2023-02-25T16:20:49;11.73;;;3.72;;
75426;SDS011;64007;50.632;13.700;2023-02-25T16:23:18;5.72;;;2.28;;
75426;SDS011;64007;50.632;13.700;2023-02-25T16:28:42;3.17;;;1.55;;
75426;SDS011;64007;50.632;13.700;2023-02-25T16:31:16;0.75;;;0.60;;
75426;SDS011;64007;50.632;13.700;2023-02-25T16:36:28;4.60;;;1.73;;
75426;SDS011;64007;50.632;13.700;2023-02-25T16:39:11;0.30;;;0.30;;
75426;SDS011;64007;50.632;13.700;2023-02-25T16:41:42;1.80;;;0.82;;
75426;SDS011;64007;50.632;13.700;2023-02-25T16:44:09;1.63;;;0.65;;
75426;SDS011;64007;50.632;13.700;2023-02-25T16:46:43;0.70;;;0.40;;
75426;SDS011;64007;50.632;13.700;2023-02-25T16:49:20;0.35;;;0.30;;
75426;SDS011;64007;50.632;13.700;2023-02-25T16:51:52;0.13;;;0.13;;
75426;SDS011;64007;50.632;13.700;2023-02-25T16:54:20;1.45;;;0.20;;
75426;SDS011;64007;50.632;13.700;2023-02-25T16:56:50;1.35;;;0.30;;
75426;SDS011;64007;50.632;13.700;2023-02-25T16:59:20;1.45;;;0.50;;
75426;SDS011;64007;50.632;13.700;2023-02-25T17:01:56;0.30;;;0.20;;
75426;SDS011;64007;50.632;13.700;2023-02-25T17:04:27;0.35;;;0.35;;
75426;SDS011;64007;50.632;13.700;2023-02-25T17:09:32;0.60;;;0.30;;
75426;SDS011;64007;50.632;13.700;2023-02-25T17:11:59;0.50;;;0.30;;
75426;SDS011;64007;50.632;13.700;2023-02-25T17:14:27;0.70;;;0.38;;
75426;SDS011;64007;50.632;13.700;2023-02-25T17:16:54;0.85;;;0.40;;
75426;SDS011;64007;50.632;13.700;2023-02-25T17:19:21;2.47;;;0.38;;
75426;SDS011;64007;50.632;13.700;2023-02-25T17:21:52;1.27;;;0.43;;
75426;SDS011;64007;50.632;13.700;2023-02-25T17:24:23;0.77;;;0.47;;
75426;SDS011;64007;50.632;13.700;2023-02-25T17:26:53;0.37;;;0.37;;
75426;SDS011;64007;50.632;13.700;2023-02-25T17:29:19;0.20;;;0.20;;
75426;SDS011;64007;50.632;13.700;2023-02-25T17:31:47;0.77;;;0.40;;
75426;SDS011;64007;50.632;13.700;2023-02-25T17:34:16;0.40;;;0.30;;
75426;SDS011;64007;50.632;13.700;2023-02-25T17:36:54;0.47;;;0.35;;
75426;SDS011;64007;50.632;13.700;2023-02-25T17:39:22;0.40;;;0.30;;
75426;SDS011;64007;50.632;13.700;2023-02-25T17:41:49;1.00;;;0.40;;
75426;SDS011;64007;50.632;13.700;2023-02-25T17:47:03;0.35;;;0.28;;
75426;SDS011;64007;50.632;13.700;2023-02-25T17:49:33;0.50;;;0.35;;
75426;SDS011;64007;50.632;13.700;2023-02-25T17:52:00;1.38;;;0.30;;
75426;SDS011;64007;50.632;13.700;2023-02-25T17:54:30;0.63;;;0.40;;
75426;SDS011;64007;50.632;13.700;2023-02-25T17:57:00;1.05;;;0.43;;
75426;SDS011;64007;50.632;13.700;2023-02-25T18:02:00;0.68;;;0.32;;
75426;SDS011;64007;50.632;13.700;2023-02-25T18:04:35;0.22;;;0.22;;
75426;SDS011;64007;50.632;13.700;2023-02-25T18:09:58;0.85;;;0.45;;
75426;SDS011;64007;50.632;13.700;2023-02-25T18:12:32;0.68;;;0.40;;
75426;SDS011;64007;50.632;13.700;2023-02-25T18:17:38;0.60;;;0.40;;
75426;SDS011;64007;50.632;13.700;2023-02-25T18:20:06;0.40;;;0.30;;
75426;SDS011;64007;50.632;13.700;2023-02-25T18:22:52;0.28;;;0.20;;
75426;SDS011;64007;50.632;13.700;2023-02-25T18:27:59;0.57;;;0.40;;
75426;SDS011;64007;50.632;13.700;2023-02-25T18:30:27;0.85;;;0.40;;
75426;SDS011;64007;50.632;13.700;2023-02-25T18:32:55;1.58;;;0.90;;
75426;SDS011;64007;50.632;13.700;2023-02-25T18:35:27;2.05;;;0.55;;
75426;SDS011;64007;50.632;13.700;2023-02-25T18:37:55;0.70;;;0.40;;
75426;SDS011;64007;50.632;13.700;2023-02-25T18:42:59;0.50;;;0.38;;
75426;SDS011;64007;50.632;13.700;2023-02-25T18:45:26;0.43;;;0.40;;
75426;SDS011;64007;50.632;13.700;2023-02-25T18:47:53;0.60;;;0.40;;
75426;SDS011;64007;50.632;13.700;2023-02-25T18:50:21;0.30;;;0.30;;
75426;SDS011;64007;50.632;13.700;2023-02-25T18:52:48;3.97;;;1.52;;
75426;SDS011;64007;50.632;13.700;2023-02-25T18:55:18;0.80;;;0.50;;
75426;SDS011;64007;50.632;13.700;2023-02-25T18:57:45;0.57;;;0.38;;
75426;SDS011;64007;50.632;13.700;2023-02-25T19:00:13;0.43;;;0.30;;
75426;SDS011;64007;50.632;13.700;2023-02-25T19:02:44;1.30;;;0.80;;
75426;SDS011;64007;50.632;13.700;2023-02-25T19:05:13;0.52;;;0.40;;
75426;SDS011;64007;50.632;13.700;2023-02-25T19:07:40;0.68;;;0.40;;
75426;SDS011;64007;50.632;13.700;2023-02-25T19:10:08;1.33;;;0.70;;
75426;SDS011;64007;50.632;13.700;2023-02-25T19:12:35;0.55;;;0.50;;